To NAV CANADA Home Page Login to a new session Search on AWWS site Disclaimer Vers la page française équivalente Tips FAQ What's new on the site To the Forecasts and Observations / NOTAM section To "File a Flight Plan" website Publications and other links Update of the User's profile FIC Telephone Numbers My Weather Data Folder Route Weather Data Regional Weather Data Local Weather Data To the Forecasts and Observations / NOTAM section
Request Generated 10/21/2018 at 05:51:22 UTC . Weather information available at that time is displayed.

METAR/TAF

MONT-JOLI/QC    

METAR CYYY 210500Z 23012G21KT 30SM FEW060 03/M01 A2942 RMK SC1 SLP967=
METAR CYYY 210400Z 24016G24KT 30SM FEW064 04/M01 A2941 RMK SC2 SLP961=
METAR CYYY 210300Z 24017G25KT 30SM SCT059 04/M01 A2941 RMK SC3 SLP961=

TAF CYYY 210138Z 2102/2114 24015G28KT P6SM SCT040 TEMPO 2102/2109
BKN040
FM210900 24015G25KT P6SM BKN030 TEMPO 2109/2114 BKN020
BECMG 2110/2112 27015G25KT
RMK NXT FCST BY 210800Z=
Your time UTC time
Weather data provided by Environment Canada and NAV CANADA